createdAt,value
2023-01-31T00:00:17.334Z,78.00
2023-01-31T00:02:46.762Z,78.00
2023-01-31T00:05:14.952Z,78.00
2023-01-31T00:07:43.066Z,78.10
2023-01-31T00:10:12.313Z,78.00
2023-01-31T00:12:40.358Z,78.00
2023-01-31T00:15:09.343Z,78.00
2023-01-31T00:17:37.389Z,78.00
2023-01-31T00:20:08.333Z,77.90
2023-01-31T00:22:36.376Z,78.00
2023-01-31T00:25:04.702Z,77.90
2023-01-31T00:27:32.754Z,77.90
2023-01-31T00:30:00.834Z,78.00
2023-01-31T00:32:28.941Z,77.90
2023-01-31T00:34:57.009Z,77.90
2023-01-31T00:37:26.513Z,77.90
2023-01-31T00:39:54.608Z,77.90
2023-01-31T00:42:22.726Z,77.90
2023-01-31T00:44:50.800Z,77.90
2023-01-31T00:47:18.863Z,77.90
2023-01-31T00:49:46.923Z,77.90
2023-01-31T00:52:15.042Z,77.90
2023-01-31T00:54:44.585Z,78.00
2023-01-31T00:57:12.706Z,77.90
2023-01-31T00:59:40.821Z,77.90
2023-01-31T01:02:08.918Z,77.90
2023-01-31T01:04:37.371Z,77.90
2023-01-31T01:07:05.445Z,77.90
2023-01-31T01:09:33.561Z,77.90
2023-01-31T01:12:03.037Z,77.80
2023-01-31T01:14:31.104Z,77.90
2023-01-31T01:16:59.326Z,77.90
2023-01-31T01:19:27.379Z,77.90
2023-01-31T01:21:56.176Z,77.90
2023-01-31T01:24:28.088Z,77.90
2023-01-31T01:26:56.311Z,77.90
2023-01-31T01:29:25.775Z,77.90
2023-01-31T01:31:53.914Z,77.90
2023-01-31T01:34:22.040Z,77.90
2023-01-31T01:36:50.112Z,77.90
2023-01-31T01:39:18.279Z,77.90
2023-01-31T01:41:46.837Z,77.90
2023-01-31T01:44:49.183Z,77.90
2023-01-31T01:47:23.438Z,77.90
2023-01-31T01:49:54.124Z,77.90
2023-01-31T01:52:22.320Z,78.00
2023-01-31T01:54:51.973Z,77.90
2023-01-31T01:57:22.853Z,77.90
2023-01-31T01:59:56.185Z,77.80
2023-01-31T02:02:24.254Z,77.90
2023-01-31T02:04:52.349Z,77.90
2023-01-31T02:07:20.600Z,77.90
2023-01-31T02:09:50.504Z,77.90
2023-01-31T02:12:18.553Z,77.80
2023-01-31T02:14:46.748Z,77.90
2023-01-31T02:17:16.751Z,77.80
2023-01-31T02:19:50.579Z,77.80
2023-01-31T02:22:19.722Z,77.80
2023-01-31T02:25:19.855Z,77.80
2023-01-31T02:28:09.527Z,77.80
2023-01-31T02:31:10.149Z,77.80
2023-01-31T02:33:40.818Z,77.80
2023-01-31T02:36:13.112Z,77.80
2023-01-31T02:38:46.883Z,77.90
2023-01-31T02:41:17.937Z,77.80
2023-01-31T02:44:11.091Z,77.80
2023-01-31T02:46:43.515Z,77.80
2023-01-31T02:49:34.593Z,77.80
2023-01-31T02:52:17.220Z,77.80
2023-01-31T02:55:06.688Z,77.80
2023-01-31T02:57:34.855Z,77.80
2023-01-31T03:00:03.529Z,77.80
2023-01-31T03:02:31.586Z,77.80
2023-01-31T03:05:00.986Z,77.80
2023-01-31T03:07:29.543Z,77.80
2023-01-31T03:10:03.039Z,77.80
2023-01-31T03:12:40.471Z,77.80
2023-01-31T03:15:15.284Z,77.80
2023-01-31T03:17:49.110Z,77.70
2023-01-31T03:20:19.996Z,77.70
2023-01-31T03:22:49.489Z,77.80
2023-01-31T03:25:19.959Z,77.70
2023-01-31T03:27:52.804Z,77.80
2023-01-31T03:30:22.318Z,77.70
2023-01-31T03:32:51.534Z,77.70
2023-01-31T03:35:21.216Z,77.70
2023-01-31T03:37:50.496Z,77.70
2023-01-31T03:40:20.030Z,77.70
2023-01-31T03:42:51.518Z,77.70
2023-01-31T03:45:21.613Z,77.70
2023-01-31T03:47:50.765Z,77.70
2023-01-31T03:50:22.347Z,77.70
2023-01-31T03:52:52.755Z,77.70
2023-01-31T03:55:22.067Z,77.70
2023-01-31T03:57:52.100Z,77.70
2023-01-31T04:00:20.729Z,77.70
2023-01-31T04:02:49.475Z,77.70
2023-01-31T04:05:19.764Z,77.70
2023-01-31T04:07:49.362Z,77.70
2023-01-31T04:10:18.982Z,77.70
2023-01-31T04:12:47.200Z,77.70
2023-01-31T04:15:16.015Z,77.70
2023-01-31T04:17:44.072Z,77.70
2023-01-31T04:20:13.201Z,77.60
2023-01-31T04:22:41.286Z,77.70
2023-01-31T04:25:11.381Z,77.70
2023-01-31T04:27:40.041Z,77.60
2023-01-31T04:30:09.746Z,77.60
2023-01-31T04:32:37.798Z,77.60
2023-01-31T04:35:06.591Z,77.60
2023-01-31T04:37:35.622Z,77.60
2023-01-31T04:40:03.656Z,77.60
2023-01-31T04:42:33.311Z,77.60
2023-01-31T04:45:01.379Z,77.60
2023-01-31T04:47:29.464Z,77.60
2023-01-31T04:49:57.504Z,77.60
2023-01-31T04:52:25.595Z,77.60
2023-01-31T04:54:53.621Z,77.60
2023-01-31T04:57:21.812Z,77.60
2023-01-31T04:59:52.283Z,77.60
2023-01-31T05:02:20.360Z,77.60
2023-01-31T05:04:48.447Z,77.60
2023-01-31T05:07:16.507Z,77.60
2023-01-31T05:09:45.332Z,77.60
2023-01-31T05:12:13.390Z,77.60
2023-01-31T05:14:41.533Z,77.60
2023-01-31T05:17:10.959Z,77.70
2023-01-31T05:19:38.982Z,77.70
2023-01-31T05:22:09.636Z,77.70
2023-01-31T05:24:37.879Z,77.70
2023-01-31T05:27:05.941Z,77.70
2023-01-31T05:29:34.328Z,77.80
2023-01-31T05:32:03.745Z,77.70
2023-01-31T05:34:35.022Z,77.70
2023-01-31T05:37:03.636Z,77.80
2023-01-31T05:39:32.298Z,77.80
2023-01-31T05:42:00.526Z,77.90
2023-01-31T05:44:28.626Z,77.90
2023-01-31T05:46:57.631Z,77.80
2023-01-31T05:49:25.666Z,77.80
2023-01-31T05:51:55.065Z,77.90
2023-01-31T05:54:23.113Z,77.90
2023-01-31T05:56:51.372Z,77.90
2023-01-31T05:59:19.420Z,77.90
2023-01-31T06:01:47.534Z,77.90
2023-01-31T06:04:15.670Z,77.90
2023-01-31T06:06:44.816Z,77.90
2023-01-31T06:09:14.423Z,77.90
2023-01-31T06:11:42.501Z,77.90
2023-01-31T06:14:10.608Z,77.90
2023-01-31T06:16:38.689Z,77.90
2023-01-31T06:19:06.917Z,77.90
2023-01-31T06:21:35.195Z,77.90
2023-01-31T06:24:03.312Z,78.00
2023-01-31T06:26:33.250Z,78.00
2023-01-31T06:29:01.476Z,78.00
2023-01-31T06:31:29.743Z,78.00
2023-01-31T06:33:58.931Z,78.00
2023-01-31T06:36:27.895Z,78.00
2023-01-31T06:38:55.967Z,78.00
2023-01-31T06:41:24.099Z,78.00
2023-01-31T06:43:53.516Z,78.00
2023-01-31T06:46:21.654Z,78.00
2023-01-31T06:48:49.761Z,78.00
2023-01-31T06:51:17.942Z,78.00
2023-01-31T06:53:45.993Z,78.00
2023-01-31T06:56:14.007Z,78.10
2023-01-31T06:58:42.053Z,78.00
2023-01-31T07:01:13.007Z,78.00
2023-01-31T07:03:41.122Z,78.00
2023-01-31T07:06:09.443Z,78.10
2023-01-31T07:08:38.256Z,78.10
2023-01-31T07:11:06.619Z,78.00
2023-01-31T07:13:39.762Z,78.10
2023-01-31T07:16:08.419Z,78.10
2023-01-31T07:18:37.892Z,78.10
2023-01-31T07:21:06.373Z,78.10
2023-01-31T07:23:34.488Z,78.20
2023-01-31T07:26:04.757Z,78.10
2023-01-31T07:28:32.861Z,78.20
2023-01-31T07:31:06.440Z,78.10
2023-01-31T07:33:34.869Z,78.10
2023-01-31T07:36:05.291Z,78.10
2023-01-31T07:38:33.467Z,78.20
2023-01-31T07:41:01.865Z,78.20
2023-01-31T07:43:30.034Z,78.20
2023-01-31T07:45:58.257Z,78.20
2023-01-31T07:48:26.349Z,78.20
2023-01-31T07:50:58.951Z,78.20
2023-01-31T07:53:28.575Z,78.20
2023-01-31T07:55:56.640Z,78.20
2023-01-31T07:58:24.712Z,78.20
2023-01-31T08:01:11.086Z,78.20
2023-01-31T08:03:39.299Z,78.20
2023-01-31T08:06:09.968Z,78.20
2023-01-31T08:08:39.419Z,78.20
2023-01-31T08:11:07.609Z,78.20
2023-01-31T08:13:36.183Z,78.20
2023-01-31T08:16:04.304Z,78.20
2023-01-31T08:18:32.850Z,78.20
2023-01-31T08:21:03.819Z,78.20
2023-01-31T08:23:32.129Z,78.20
2023-01-31T08:26:06.823Z,78.20
2023-01-31T08:28:39.856Z,78.20
2023-01-31T08:31:09.522Z,78.20
2023-01-31T08:33:38.500Z,78.20
2023-01-31T08:36:16.722Z,78.20
2023-01-31T08:38:45.000Z,78.20
2023-01-31T08:41:14.596Z,78.20
2023-01-31T08:43:54.896Z,78.20
2023-01-31T08:46:23.949Z,78.20
2023-01-31T08:48:52.115Z,78.20
2023-01-31T08:51:20.281Z,78.20
2023-01-31T08:53:48.725Z,78.30
2023-01-31T08:56:18.309Z,78.30
2023-01-31T08:58:46.419Z,78.30
2023-01-31T09:01:15.518Z,78.30
2023-01-31T09:03:45.152Z,78.30
2023-01-31T09:06:15.082Z,78.30
2023-01-31T09:08:43.160Z,78.30
2023-01-31T09:11:11.232Z,78.40
2023-01-31T09:13:40.623Z,78.40
2023-01-31T09:16:10.238Z,78.40
2023-01-31T09:18:39.956Z,78.40
2023-01-31T09:21:08.608Z,78.40
2023-01-31T09:23:36.779Z,78.50
2023-01-31T09:26:05.049Z,78.50
2023-01-31T09:28:33.909Z,78.50
2023-01-31T09:31:06.985Z,78.60
2023-01-31T09:33:35.528Z,78.60
2023-01-31T09:36:04.590Z,78.60
2023-01-31T09:38:32.998Z,78.70
2023-01-31T09:41:02.559Z,78.70
2023-01-31T09:43:34.337Z,78.60
2023-01-31T09:46:03.802Z,78.70
2023-01-31T09:48:35.931Z,78.70
2023-01-31T09:51:04.097Z,78.70
2023-01-31T09:53:34.113Z,78.90
2023-01-31T09:56:11.217Z,78.90
2023-01-31T09:58:41.951Z,78.80
2023-01-31T10:01:13.002Z,78.80
2023-01-31T10:04:05.991Z,78.90
2023-01-31T10:06:36.410Z,78.90
2023-01-31T10:09:05.566Z,79.00
2023-01-31T10:11:37.723Z,78.90
2023-01-31T10:14:10.800Z,79.10
2023-01-31T10:16:39.809Z,79.00
2023-01-31T10:19:09.865Z,79.20
2023-01-31T10:21:41.497Z,79.10
2023-01-31T10:24:13.328Z,79.20
2023-01-31T10:26:42.096Z,79.10
2023-01-31T10:29:13.756Z,79.20
2023-01-31T10:31:44.168Z,79.20
2023-01-31T10:34:17.192Z,79.20
2023-01-31T10:36:46.631Z,79.20
2023-01-31T10:39:18.360Z,79.30
2023-01-31T10:41:52.780Z,79.30
2023-01-31T10:44:23.747Z,79.40
2023-01-31T10:46:52.836Z,79.30
2023-01-31T10:49:22.267Z,79.30
2023-01-31T10:51:57.092Z,79.30
2023-01-31T10:54:32.091Z,79.40
2023-01-31T10:57:00.247Z,79.40
2023-01-31T10:59:31.603Z,79.40
2023-01-31T11:01:59.731Z,79.40
2023-01-31T11:04:31.238Z,79.50
2023-01-31T11:06:59.934Z,79.50
2023-01-31T11:09:29.113Z,79.60
2023-01-31T11:11:58.286Z,79.60
2023-01-31T11:14:26.314Z,79.70
2023-01-31T11:16:59.579Z,79.70
2023-01-31T11:19:31.878Z,79.60
2023-01-31T11:21:59.943Z,79.80
2023-01-31T11:24:30.981Z,79.70
2023-01-31T11:27:01.826Z,79.70
2023-01-31T11:29:30.801Z,79.80
2023-01-31T11:31:59.259Z,79.60
2023-01-31T11:34:29.841Z,79.80
2023-01-31T11:37:05.713Z,79.80
2023-01-31T11:39:34.956Z,79.80
2023-01-31T11:42:12.957Z,79.80
2023-01-31T11:44:58.685Z,80.00
2023-01-31T11:47:32.569Z,79.90
2023-01-31T11:50:02.519Z,80.00
2023-01-31T11:52:31.516Z,80.00
2023-01-31T11:55:06.396Z,80.00
2023-01-31T11:57:35.549Z,80.00
2023-01-31T12:00:04.810Z,80.10
2023-01-31T12:02:36.260Z,80.30
2023-01-31T12:05:11.057Z,80.10
2023-01-31T12:07:44.385Z,80.30
2023-01-31T12:10:33.042Z,80.30
2023-01-31T12:13:16.735Z,80.40
2023-01-31T12:15:52.764Z,80.40
2023-01-31T12:18:27.663Z,80.50
2023-01-31T12:21:01.804Z,80.50
2023-01-31T12:23:40.967Z,80.50
2023-01-31T12:26:12.141Z,80.50
2023-01-31T12:28:48.979Z,80.40
2023-01-31T12:31:30.830Z,80.60
2023-01-31T12:34:23.713Z,80.60
2023-01-31T12:37:02.296Z,80.60
2023-01-31T12:39:46.294Z,80.70
2023-01-31T12:42:26.873Z,80.70
2023-01-31T12:45:00.815Z,80.70
2023-01-31T12:47:52.080Z,80.90
2023-01-31T12:50:31.321Z,80.90
2023-01-31T12:53:31.920Z,81.10
2023-01-31T12:56:07.731Z,81.10
2023-01-31T12:58:43.210Z,81.00
2023-01-31T13:01:13.052Z,81.10
2023-01-31T13:03:53.189Z,81.20
2023-01-31T13:06:23.418Z,81.20
2023-01-31T13:09:07.246Z,81.20
2023-01-31T13:11:38.515Z,81.20
2023-01-31T13:14:07.064Z,81.30
2023-01-31T13:16:36.154Z,81.30
2023-01-31T13:19:06.098Z,81.20
2023-01-31T13:21:38.555Z,81.20
2023-01-31T13:24:11.132Z,81.30
2023-01-31T13:26:41.618Z,81.30
2023-01-31T13:29:13.849Z,81.40
2023-01-31T13:31:44.011Z,81.40
2023-01-31T13:34:14.391Z,81.50
2023-01-31T13:36:44.015Z,81.70
2023-01-31T13:39:16.525Z,81.70
2023-01-31T13:41:44.608Z,81.40
2023-01-31T13:44:13.771Z,81.70
2023-01-31T13:46:45.288Z,81.60
2023-01-31T13:49:18.142Z,81.80
2023-01-31T13:51:47.764Z,81.70
2023-01-31T13:54:19.385Z,81.90
2023-01-31T13:56:50.040Z,81.90
2023-01-31T13:59:20.218Z,81.80
2023-01-31T14:01:48.848Z,81.90
2023-01-31T14:04:40.399Z,81.80
2023-01-31T14:07:19.722Z,81.90
2023-01-31T14:10:26.028Z,81.90
2023-01-31T14:13:27.336Z,82.00
2023-01-31T14:15:56.008Z,82.10
2023-01-31T14:18:43.746Z,82.20
2023-01-31T14:21:54.866Z,82.20
2023-01-31T14:25:04.692Z,82.20
2023-01-31T14:27:36.184Z,82.20
2023-01-31T14:30:44.011Z,82.30
2023-01-31T14:33:23.924Z,82.30
2023-01-31T14:36:14.591Z,82.40
2023-01-31T14:38:50.013Z,82.50
2023-01-31T14:41:21.784Z,82.60
2023-01-31T14:43:57.371Z,82.70
2023-01-31T14:46:45.796Z,82.40
2023-01-31T14:49:50.299Z,82.80
2023-01-31T14:52:29.528Z,82.50
2023-01-31T14:55:07.231Z,82.80
2023-01-31T14:57:39.593Z,82.80
2023-01-31T15:00:19.731Z,83.00
2023-01-31T15:02:50.287Z,83.00
2023-01-31T15:05:20.253Z,83.00
2023-01-31T15:08:07.683Z,83.00
2023-01-31T15:10:58.960Z,83.20
2023-01-31T15:13:47.303Z,83.10
2023-01-31T15:16:26.820Z,83.30
2023-01-31T15:19:00.910Z,83.40
2023-01-31T15:21:34.918Z,83.50
2023-01-31T15:24:02.945Z,83.40
2023-01-31T15:26:32.959Z,83.50
2023-01-31T15:29:01.600Z,83.70
2023-01-31T15:31:32.847Z,83.50
2023-01-31T15:34:02.895Z,83.70
2023-01-31T15:36:33.268Z,83.70
2023-01-31T15:39:04.281Z,83.80
2023-01-31T15:41:37.981Z,83.80
2023-01-31T15:44:13.148Z,83.90
2023-01-31T15:46:43.299Z,83.90
2023-01-31T15:49:38.466Z,84.10
2023-01-31T15:52:12.731Z,84.10
2023-01-31T15:54:40.836Z,84.20
2023-01-31T15:57:11.888Z,84.00
2023-01-31T15:59:39.938Z,84.40
2023-01-31T16:02:20.859Z,84.40
2023-01-31T16:04:49.012Z,84.40
2023-01-31T16:07:18.793Z,84.30
2023-01-31T16:09:46.859Z,84.50
2023-01-31T16:12:15.222Z,84.70
2023-01-31T16:14:44.200Z,84.50
2023-01-31T16:17:13.630Z,84.50
2023-01-31T16:19:46.178Z,85.00
2023-01-31T16:22:27.070Z,85.10
2023-01-31T16:24:56.542Z,84.80
2023-01-31T16:27:24.601Z,85.10
2023-01-31T16:29:53.518Z,85.20
2023-01-31T16:32:24.126Z,85.30
2023-01-31T16:34:58.978Z,85.40
2023-01-31T16:37:32.260Z,85.20
2023-01-31T16:40:01.902Z,85.40
2023-01-31T16:42:31.170Z,85.40
2023-01-31T16:44:59.223Z,85.40
2023-01-31T16:47:46.965Z,85.30
2023-01-31T16:50:42.251Z,85.30
2023-01-31T16:53:18.430Z,85.10
2023-01-31T16:55:46.515Z,85.10
2023-01-31T16:58:14.851Z,85.20
2023-01-31T17:00:42.880Z,85.30
2023-01-31T17:03:19.272Z,85.10
2023-01-31T17:05:48.482Z,85.10
2023-01-31T17:08:17.764Z,85.40
2023-01-31T17:10:47.379Z,85.30
2023-01-31T17:13:18.238Z,85.30
2023-01-31T17:15:46.325Z,85.10
2023-01-31T17:18:15.861Z,85.30
2023-01-31T17:20:45.029Z,85.10
2023-01-31T17:23:13.812Z,85.50
2023-01-31T17:25:42.862Z,85.20
2023-01-31T17:28:11.036Z,85.10
2023-01-31T17:30:39.666Z,85.50
2023-01-31T17:33:07.778Z,85.60
2023-01-31T17:35:38.829Z,85.60
2023-01-31T17:38:07.134Z,85.50
2023-01-31T17:40:35.368Z,85.70
2023-01-31T17:43:04.963Z,85.60
2023-01-31T17:45:33.339Z,85.50
2023-01-31T17:48:01.369Z,85.60
2023-01-31T17:50:30.002Z,85.60
2023-01-31T17:52:59.434Z,85.60
2023-01-31T17:55:27.510Z,85.50
2023-01-31T17:57:55.554Z,85.40
2023-01-31T18:00:23.684Z,85.50
2023-01-31T18:02:52.722Z,85.60
2023-01-31T18:05:30.273Z,85.70
2023-01-31T18:08:07.600Z,85.50
2023-01-31T18:10:35.664Z,85.50
2023-01-31T18:13:03.732Z,85.70
2023-01-31T18:15:31.918Z,85.60
2023-01-31T18:17:59.951Z,85.50
2023-01-31T18:20:28.037Z,85.60
2023-01-31T18:22:56.148Z,85.50
2023-01-31T18:25:25.589Z,85.50
2023-01-31T18:27:53.617Z,85.60
2023-01-31T18:30:21.743Z,85.60
2023-01-31T18:32:49.767Z,85.50
2023-01-31T18:35:22.915Z,85.70
2023-01-31T18:37:51.211Z,85.70
2023-01-31T18:40:19.485Z,85.70
2023-01-31T18:42:48.891Z,85.50
2023-01-31T18:45:17.129Z,85.80
2023-01-31T18:47:45.168Z,85.70
2023-01-31T18:50:13.321Z,85.70
2023-01-31T18:52:43.885Z,85.70
2023-01-31T18:55:12.004Z,85.60
2023-01-31T18:57:40.062Z,85.80
2023-01-31T19:00:11.049Z,85.90
2023-01-31T19:02:39.090Z,85.70
2023-01-31T19:05:08.754Z,85.70
2023-01-31T19:07:36.775Z,85.80
2023-01-31T19:10:05.092Z,85.60
2023-01-31T19:12:33.607Z,85.80
2023-01-31T19:15:01.661Z,85.70
2023-01-31T19:17:31.078Z,85.70
2023-01-31T19:19:59.139Z,85.70
2023-01-31T19:22:28.642Z,85.70
2023-01-31T19:24:56.762Z,85.60
2023-01-31T19:27:25.009Z,85.70
2023-01-31T19:29:53.096Z,85.60
2023-01-31T19:32:22.492Z,85.60
2023-01-31T19:34:53.998Z,85.70
2023-01-31T19:37:22.212Z,85.60
2023-01-31T19:39:50.338Z,85.60
2023-01-31T19:42:18.519Z,85.60
2023-01-31T19:44:46.563Z,85.50
2023-01-31T19:47:14.633Z,85.40
2023-01-31T19:49:42.672Z,85.50
2023-01-31T19:52:12.108Z,85.50
2023-01-31T19:54:41.353Z,85.50
2023-01-31T19:57:09.354Z,85.40
2023-01-31T19:59:37.365Z,85.50
2023-01-31T20:02:05.449Z,85.40
2023-01-31T20:04:33.530Z,85.30
2023-01-31T20:07:01.579Z,85.40
2023-01-31T20:09:30.958Z,85.40
2023-01-31T20:11:59.047Z,85.30
2023-01-31T20:14:28.621Z,85.40
2023-01-31T20:16:56.706Z,85.40
2023-01-31T20:19:24.762Z,85.30
2023-01-31T20:21:52.830Z,85.30
2023-01-31T20:24:20.907Z,85.20
2023-01-31T20:26:50.395Z,85.30
2023-01-31T20:29:18.503Z,85.20
2023-01-31T20:31:46.603Z,85.10
2023-01-31T20:34:14.676Z,85.10
2023-01-31T20:36:42.700Z,85.10
2023-01-31T20:39:12.296Z,85.10
2023-01-31T20:41:40.366Z,85.00
2023-01-31T20:44:09.780Z,85.00
2023-01-31T20:46:37.812Z,85.00
2023-01-31T20:49:05.857Z,85.00
2023-01-31T20:51:33.977Z,84.80
2023-01-31T20:54:02.938Z,84.80
2023-01-31T20:56:31.069Z,84.70
2023-01-31T20:58:59.120Z,84.70
2023-01-31T21:01:28.562Z,84.70
2023-01-31T21:03:56.705Z,84.70
2023-01-31T21:06:24.741Z,84.60
2023-01-31T21:08:52.798Z,84.60
2023-01-31T21:11:20.850Z,84.70
2023-01-31T21:13:48.912Z,84.60
2023-01-31T21:16:17.354Z,84.60
2023-01-31T21:18:47.794Z,84.50
2023-01-31T21:21:23.259Z,84.60
2023-01-31T21:23:52.035Z,84.50
2023-01-31T21:26:20.541Z,84.50
2023-01-31T21:28:48.612Z,84.30
2023-01-31T21:31:17.957Z,84.40
2023-01-31T21:33:47.547Z,84.40
2023-01-31T21:36:16.715Z,84.40
2023-01-31T21:38:44.843Z,84.50
2023-01-31T21:41:30.408Z,84.40
2023-01-31T21:43:58.529Z,84.40
2023-01-31T21:46:26.685Z,84.30
2023-01-31T21:48:56.199Z,84.40
2023-01-31T21:51:26.136Z,84.30
2023-01-31T21:53:54.326Z,84.20
2023-01-31T21:56:23.209Z,84.30
2023-01-31T21:58:51.295Z,84.30
2023-01-31T22:01:20.172Z,84.30
2023-01-31T22:03:49.388Z,84.30
2023-01-31T22:06:25.796Z,84.30
2023-01-31T22:08:54.417Z,84.30
2023-01-31T22:11:22.525Z,84.40
2023-01-31T22:13:53.124Z,84.30
2023-01-31T22:16:23.124Z,84.30
2023-01-31T22:18:51.261Z,84.30
2023-01-31T22:21:20.032Z,84.30
2023-01-31T22:23:50.144Z,84.30
2023-01-31T22:26:18.983Z,84.30
2023-01-31T22:28:47.110Z,84.20
2023-01-31T22:31:15.271Z,84.20
2023-01-31T22:33:43.631Z,84.20
2023-01-31T22:36:12.729Z,84.20
2023-01-31T22:38:44.173Z,84.20
2023-01-31T22:41:14.333Z,84.10
2023-01-31T22:43:43.627Z,84.20
2023-01-31T22:46:12.671Z,84.10
2023-01-31T22:48:47.142Z,84.20
2023-01-31T22:51:18.011Z,84.10
2023-01-31T22:53:46.089Z,84.20
2023-01-31T22:56:16.389Z,84.10
2023-01-31T22:58:44.483Z,84.20
2023-01-31T23:01:14.276Z,84.10
2023-01-31T23:03:42.468Z,84.10
2023-01-31T23:06:10.979Z,84.10
2023-01-31T23:08:39.192Z,84.10
2023-01-31T23:11:07.916Z,84.10
2023-01-31T23:13:37.438Z,84.20
2023-01-31T23:16:11.030Z,84.10
2023-01-31T23:18:39.116Z,84.10
2023-01-31T23:21:07.898Z,84.20
2023-01-31T23:23:36.000Z,84.10
2023-01-31T23:26:04.256Z,84.20
2023-01-31T23:28:32.415Z,84.20
2023-01-31T23:31:02.041Z,84.20
2023-01-31T23:33:30.135Z,84.30
2023-01-31T23:35:58.228Z,84.20
2023-01-31T23:38:26.315Z,84.30
2023-01-31T23:40:58.514Z,84.20
2023-01-31T23:43:26.539Z,84.20
2023-01-31T23:45:54.618Z,84.30
2023-01-31T23:48:24.071Z,84.20
2023-01-31T23:50:52.115Z,84.20
2023-01-31T23:53:20.170Z,84.30
2023-01-31T23:55:52.686Z,84.20
2023-01-31T23:58:20.749Z,84.20
